Portada
METAR-TAF:

METAR-TAF

Aeroports :

Base aèria Alcantarilla

Múrcia, Espanya

latitud: 37-57N, longitud: 001-14W, altitud: 75 m

Observació

L'informe es va fer fa 4 hores i 24 minuts, a les 11:00 UTC
Vent 4 kt amb direcció variable
Temperatura 28°C
Humitat 40%
Pressió 1015 hPa
Visibilitat 10 km o més
sense núvols per sota de 1500 mi sense presència de cumulonimbus.

METAR: LERI 021100Z VRB04KT CAVOK 28/13 Q1015 NOSIG

Hora: 17:24 (15:24 UTC)

Pronòstic

L'informe es va fer fa 1 hora i 24 minuts, a les 14:00 UTC
Pronòstic vàlid del 02 a les 15 UTC al 02 a les 24 UTC
Vent 10 kt del Sud/Sud-Est
Visibilitat 10 km o més
sense núvols per sota de 1500 mi sense presència de cumulonimbus.
Evolucionant progressivament
l' 02 a les 18 UTC al 02 a les 21 UTC
Vent 3 kt amb direcció variable

TAF: LERI 021400Z 0215/0224 15010KT CAVOK BECMG 0218/0221 VRB03KT

Observacions i pronòstics meteorològics de més de 4000 aeroports (METAR i TAF).

Les estacions disponibles són els punts grocs i vermells al mapa.

Posi el ratolí al punt desitjat per veure el nom de l'estació.

Feu clic per veure les observacions i els pronòstics meteorològics.

Per canviar el mapa: feu clic els botons verds amb una creu de color negre per apropar; al botó verd amb un guió per allunyar la imatge; o en les fletxes verdes per a mapes adjacents.


METAR-TAF: